Time;durP1;ratioP1;P1;durP2;ratioP2;P2;SDS_P1;SDS_P2;PMS_P1;PMS_P2;Temp;Humidity;BMP_temperature;BMP_pressure;BME280_temperature;BME280_humidity;BME280_pressure;Samples;Min_cycle;Max_cycle;Signal;HPM_P1;HPM_P2
2023/11/05 04:06:25;;;;;;;0.30;0.20;;;12.00;99.90;;;;;;5368548;23;20237;-64
2023/11/05 04:08:51;;;;;;;0.30;0.30;;;12.00;99.90;;;;;;4976114;28;20173;-65
2023/11/05 04:11:17;;;;;;;0.30;0.20;;;12.10;99.90;;;;;;4976212;28;20640;-67
2023/11/05 04:13:46;;;;;;;0.30;0.30;;;12.10;99.90;;;;;;4976538;28;20587;-64
2023/11/05 04:16:12;;;;;;;0.30;0.30;;;12.10;99.90;;;;;;4975678;28;20274;-66
2023/11/05 04:18:39;;;;;;;0.40;0.40;;;12.10;99.90;;;;;;4974718;28;20421;-64
2023/11/05 04:21:05;;;;;;;0.30;0.30;;;12.10;99.90;;;;;;4975377;28;20436;-65
2023/11/05 04:23:32;;;;;;;0.30;0.30;;;12.10;99.90;;;;;;4976051;28;20202;-66
2023/11/05 04:25:58;;;;;;;0.30;0.20;;;12.10;99.90;;;;;;4975238;28;20511;-66
2023/11/05 04:28:24;;;;;;;0.30;0.30;;;12.10;99.90;;;;;;4976321;28;20176;-66
2023/11/05 04:30:49;;;;;;;0.30;0.20;;;12.10;99.90;;;;;;4958289;28;20210;-65
2023/11/05 04:33:15;;;;;;;0.30;0.30;;;12.10;99.90;;;;;;4975378;28;20223;-65
2023/11/05 04:35:40;;;;;;;0.30;0.20;;;12.10;99.90;;;;;;4973615;28;20202;-66
2023/11/05 04:38:06;;;;;;;0.30;0.30;;;12.10;99.90;;;;;;4975772;28;20234;-65
2023/11/05 04:40:31;;;;;;;0.30;0.30;;;12.10;99.90;;;;;;4975635;28;20185;-67
2023/11/05 04:42:57;;;;;;;0.30;0.20;;;12.10;99.90;;;;;;4974881;28;20180;-65
2023/11/05 04:45:23;;;;;;;0.30;0.20;;;12.20;99.90;;;;;;4975279;28;20202;-65
2023/11/05 04:47:48;;;;;;;0.30;0.20;;;12.20;99.90;;;;;;4974986;28;20174;-66
2023/11/05 04:50:14;;;;;;;0.30;0.30;;;12.30;99.90;;;;;;4975321;28;20190;-66
2023/11/05 04:52:39;;;;;;;4.50;1.43;;;12.30;99.90;;;;;;4975253;28;20255;-65
2023/11/05 04:55:05;;;;;;;0.30;0.30;;;12.30;99.90;;;;;;4974795;28;20220;-63
2023/11/05 04:57:32;;;;;;;0.30;0.30;;;12.30;99.90;;;;;;4975054;28;20187;-66
2023/11/05 04:59:58;;;;;;;0.30;0.30;;;12.30;99.90;;;;;;4974842;28;20174;-65
2023/11/05 05:02:23;;;;;;;0.30;0.20;;;12.30;99.90;;;;;;4975063;28;20821;-64
2023/11/05 05:04:49;;;;;;;0.30;0.27;;;12.40;99.90;;;;;;4975009;28;20272;-65
2023/11/05 05:07:15;;;;;;;0.30;0.30;;;12.40;99.90;;;;;;4974958;28;20181;-64
2023/11/05 05:09:40;;;;;;;0.30;0.30;;;12.40;99.90;;;;;;4974869;28;20537;-65
2023/11/05 05:12:06;;;;;;;0.30;0.20;;;12.50;99.90;;;;;;4974923;28;20214;-64
2023/11/05 05:14:32;;;;;;;0.30;0.20;;;12.50;99.90;;;;;;4974392;28;20515;-66
2023/11/05 05:16:57;;;;;;;0.30;0.30;;;12.50;99.90;;;;;;4974526;28;20452;-65
2023/11/05 05:19:23;;;;;;;0.30;0.30;;;12.50;99.90;;;;;;4957423;28;20256;-68
2023/11/05 05:21:49;;;;;;;0.30;0.20;;;12.40;99.90;;;;;;4975039;28;20174;-64
2023/11/05 05:24:15;;;;;;;0.30;0.30;;;12.30;99.90;;;;;;4974570;28;20198;-66
2023/11/05 05:26:41;;;;;;;0.30;0.20;;;12.30;99.90;;;;;;4974686;28;20235;-65
2023/11/05 05:29:07;;;;;;;0.30;0.20;;;12.20;99.90;;;;;;4974604;28;20517;-68
2023/11/05 05:31:32;;;;;;;0.30;0.20;;;12.10;99.90;;;;;;4975038;28;20727;-67
2023/11/05 05:33:59;;;;;;;0.50;0.47;;;12.10;99.90;;;;;;4974443;28;20178;-65
2023/11/05 05:36:25;;;;;;;0.30;0.20;;;12.10;99.90;;;;;;4974650;28;20187;-66
2023/11/05 05:38:52;;;;;;;0.30;0.20;;;12.10;99.90;;;;;;4974704;28;20933;-67
2023/11/05 05:41:17;;;;;;;0.30;0.20;;;12.10;99.90;;;;;;4957245;28;20528;-66
2023/11/05 05:43:43;;;;;;;0.30;0.30;;;12.10;99.90;;;;;;4974274;28;20456;-65
2023/11/05 05:46:16;;;;;;;0.30;0.20;;;12.00;99.90;;;;;;4974152;28;20672;-66
2023/11/05 05:48:41;;;;;;;0.30;0.20;;;12.00;99.90;;;;;;4974740;28;20173;-66
2023/11/05 05:51:09;;;;;;;0.30;0.30;;;12.00;99.90;;;;;;4974657;28;20478;-66
2023/11/05 05:53:35;;;;;;;0.30;0.30;;;11.90;99.90;;;;;;4974586;28;20536;-64
2023/11/05 05:56:01;;;;;;;0.30;0.20;;;11.90;99.90;;;;;;4976726;28;20541;-67
2023/11/05 05:58:26;;;;;;;0.30;0.30;;;11.90;99.90;;;;;;4978930;28;20199;-64
2023/11/05 06:00:52;;;;;;;0.30;0.30;;;11.80;99.90;;;;;;4978586;28;20356;-65
2023/11/05 06:03:17;;;;;;;0.30;0.30;;;11.80;99.90;;;;;;4978104;28;20595;-65
2023/11/05 06:05:43;;;;;;;0.30;0.30;;;11.80;99.90;;;;;;4976689;28;20248;-67
2023/11/05 06:08:09;;;;;;;0.30;0.30;;;11.80;99.90;;;;;;4977580;28;20204;-65
2023/11/05 06:10:35;;;;;;;0.30;0.20;;;11.80;99.90;;;;;;4978376;28;20201;-66
2023/11/05 06:13:00;;;;;;;0.30;0.20;;;11.80;99.90;;;;;;4978491;28;20443;-65
2023/11/05 06:15:26;;;;;;;0.30;0.20;;;11.80;99.90;;;;;;4977813;28;20222;-66
2023/11/05 06:17:51;;;;;;;0.30;0.20;;;11.70;99.90;;;;;;4978105;28;20168;-66
2023/11/05 06:20:17;;;;;;;0.30;0.30;;;11.70;99.90;;;;;;4978053;28;20662;-64
2023/11/05 06:22:43;;;;;;;0.30;0.20;;;11.70;99.90;;;;;;4977739;28;20293;-64
2023/11/05 06:25:12;;;;;;;0.30;0.30;;;11.70;99.90;;;;;;4977808;28;20182;-64
2023/11/05 06:27:38;;;;;;;0.30;0.30;;;11.80;99.90;;;;;;4978099;28;20167;-66
2023/11/05 06:30:08;;;;;;;0.30;0.30;;;11.70;99.90;;;;;;4977732;28;20399;-64
2023/11/05 06:32:34;;;;;;;0.30;0.20;;;11.80;99.90;;;;;;4978082;28;20450;-66
2023/11/05 06:34:59;;;;;;;0.30;0.30;;;11.80;99.90;;;;;;4960074;28;20576;-65
2023/11/05 06:37:25;;;;;;;0.30;0.30;;;11.80;99.90;;;;;;4977454;28;20183;-66
2023/11/05 06:39:51;;;;;;;0.30;0.30;;;11.80;99.90;;;;;;4977686;28;20174;-65
2023/11/05 06:42:16;;;;;;;0.30;0.30;;;11.90;99.90;;;;;;4977896;28;20177;-66
2023/11/05 06:44:42;;;;;;;0.30;0.30;;;11.90;99.90;;;;;;4977317;28;20179;-64
2023/11/05 06:47:08;;;;;;;0.30;0.30;;;11.90;99.90;;;;;;4977700;28;20209;-65
2023/11/05 06:49:34;;;;;;;0.30;0.20;;;11.90;99.90;;;;;;4977372;28;20249;-66
2023/11/05 06:52:00;;;;;;;0.30;0.20;;;11.90;99.90;;;;;;4977049;28;20552;-64
2023/11/05 06:54:25;;;;;;;0.30;0.30;;;11.90;99.90;;;;;;4977371;28;20422;-66
2023/11/05 06:56:51;;;;;;;0.30;0.20;;;12.00;99.90;;;;;;4967377;28;20647;-66
2023/11/05 06:59:17;;;;;;;0.30;0.30;;;12.00;99.90;;;;;;4958086;29;20179;-66
2023/11/05 07:01:44;;;;;;;0.30;0.20;;;12.10;99.90;;;;;;4958117;29;20209;-64
2023/11/05 07:04:09;;;;;;;0.30;0.30;;;12.10;99.90;;;;;;4957749;29;20186;-66
2023/11/05 07:06:35;;;;;;;0.30;0.30;;;12.20;99.90;;;;;;4972841;28;20982;-68
2023/11/05 07:09:00;;;;;;;0.30;0.30;;;12.20;99.90;;;;;;4977222;28;20190;-65
2023/11/05 07:11:26;;;;;;;0.30;0.30;;;12.30;99.90;;;;;;4976026;28;20207;-65
2023/11/05 07:13:52;;;;;;;0.30;0.30;;;12.30;99.90;;;;;;4976887;28;20174;-66
2023/11/05 07:16:18;;;;;;;0.30;0.30;;;12.40;99.90;;;;;;4976835;28;20430;-66
2023/11/05 07:18:43;;;;;;;0.30;0.30;;;12.40;99.90;;;;;;4976965;28;20226;-66
2023/11/05 07:21:14;;;;;;;0.30;0.20;;;12.40;99.90;;;;;;4976125;28;20190;-65
2023/11/05 07:23:41;;;;;;;0.30;0.20;;;12.50;99.90;;;;;;4977009;28;20732;-64
2023/11/05 07:26:06;;;;;;;0.30;0.20;;;12.60;99.90;;;;;;4976626;28;20794;-66
2023/11/05 07:28:33;;;;;;;0.30;0.30;;;12.70;99.90;;;;;;4976219;28;20400;-64
2023/11/05 07:30:58;;;;;;;0.30;0.30;;;12.80;99.90;;;;;;4976589;28;20680;-67
2023/11/05 07:33:24;;;;;;;0.30;0.30;;;12.90;99.90;;;;;;4976745;28;20411;-67
2023/11/05 07:35:50;;;;;;;0.50;0.50;;;13.00;99.90;;;;;;4958621;28;20744;-64
2023/11/05 07:38:15;;;;;;;0.30;0.30;;;13.10;99.90;;;;;;4976421;28;20230;-64
2023/11/05 07:40:41;;;;;;;0.30;0.20;;;13.10;99.90;;;;;;4976173;28;20509;-65
2023/11/05 07:43:06;;;;;;;0.30;0.20;;;13.20;99.90;;;;;;4976650;28;20234;-63
2023/11/05 08:03:41;;;;;;;0.30;0.30;;;14.10;99.90;;;;;;5089885;28;20573;-65
2023/11/05 08:06:07;;;;;;;0.30;0.30;;;15.30;99.90;;;;;;5090464;28;20406;-64
2023/11/05 08:08:34;;;;;;;0.30;0.30;;;15.90;99.90;;;;;;5078789;28;20191;-66
2023/11/05 08:11:00;;;;;;;0.30;0.30;;;16.40;99.90;;;;;;5071303;28;20449;-66
2023/11/05 08:13:25;;;;;;;0.40;0.40;;;17.30;99.70;;;;;;5069528;28;20471;-68
2023/11/05 08:15:51;;;;;;;0.30;0.30;;;18.20;98.30;;;;;;5069980;28;20382;-70
2023/11/05 08:18:18;;;;;;;0.30;0.30;;;18.80;96.90;;;;;;5080932;28;20172;-64
2023/11/05 08:20:43;;;;;;;0.30;0.30;;;19.30;95.70;;;;;;5086138;28;20405;-63
2023/11/05 08:23:09;;;;;;;0.30;0.30;;;19.60;94.90;;;;;;5070713;28;20458;-68
2023/11/05 08:25:34;;;;;;;0.30;0.20;;;19.80;93.80;;;;;;5089647;28;20248;-62
2023/11/05 08:28:00;;;;;;;0.30;0.30;;;19.60;93.30;;;;;;5089946;28;20259;-66
2023/11/05 08:30:26;;;;;;;0.30;0.30;;;19.30;93.10;;;;;;5076822;28;20231;-66
2023/11/05 08:32:54;;;;;;;0.30;0.30;;;18.80;92.90;;;;;;5069583;28;20548;-68
2023/11/05 08:35:20;;;;;;;0.30;0.20;;;18.10;93.90;;;;;;5069777;28;20536;-67
2023/11/05 08:37:49;;;;;;;0.30;0.30;;;17.50;95.00;;;;;;5069654;28;20415;-67
2023/11/05 08:40:16;;;;;;;0.30;0.30;;;17.20;95.40;;;;;;5080270;28;20479;-66
2023/11/05 08:42:43;;;;;;;0.30;0.30;;;17.00;96.10;;;;;;5089543;28;20470;-70
2023/11/05 08:45:09;;;;;;;0.30;0.30;;;17.20;96.50;;;;;;5089817;28;20509;-63
2023/11/05 08:47:35;;;;;;;0.30;0.30;;;17.60;95.90;;;;;;5086842;28;20418;-62
2023/11/05 08:50:02;;;;;;;0.30;0.30;;;18.20;95.30;;;;;;5069238;28;20419;-68
2023/11/05 08:52:28;;;;;;;0.30;0.30;;;18.80;94.80;;;;;;5069177;28;20394;-65
2023/11/05 08:54:54;;;;;;;0.30;0.30;;;19.50;93.90;;;;;;5051593;28;20425;-63
2023/11/05 08:57:20;;;;;;;0.30;0.30;;;20.00;92.90;;;;;;5069307;28;20241;-64
2023/11/05 08:59:46;;;;;;;0.30;0.30;;;20.50;92.70;;;;;;5069380;28;20405;-60
2023/11/05 09:02:12;;;;;;;0.30;0.27;;;21.00;91.80;;;;;;5051677;28;20448;-62
2023/11/05 09:04:38;;;;;;;0.40;0.40;;;21.30;91.20;;;;;;5055305;28;20231;-68
2023/11/05 09:07:04;;;;;;;0.30;0.30;;;21.60;90.40;;;;;;5055967;28;20458;-62
2023/11/05 09:09:30;;;;;;;0.30;0.20;;;21.90;90.30;;;;;;5073248;28;20454;-69
2023/11/05 09:11:56;;;;;;;0.30;0.20;;;21.90;90.10;;;;;;5075723;28;20189;-70
2023/11/05 09:14:21;;;;;;;0.30;0.30;;;21.70;89.10;;;;;;5075192;28;20439;-64
2023/11/05 09:16:49;;;;;;;0.30;0.30;;;21.70;88.70;;;;;;5075455;28;20172;-65
2023/11/05 09:19:15;;;;;;;0.30;0.20;;;21.60;88.40;;;;;;5059973;28;20177;-65
2023/11/05 09:21:45;;;;;;;0.30;0.30;;;21.60;88.70;;;;;;5055530;28;20438;-61
2023/11/05 09:24:11;;;;;;;0.30;0.20;;;21.80;88.40;;;;;;5055010;28;20762;-66
2023/11/05 09:26:37;;;;;;;0.30;0.30;;;21.90;88.30;;;;;;5055715;28;20391;-60
2023/11/05 09:29:03;;;;;;;0.30;0.30;;;22.00;88.60;;;;;;5056853;28;20185;-68
2023/11/05 09:31:29;;;;;;;0.30;0.20;;;22.00;87.60;;;;;;5055777;28;20891;-60
2023/11/05 09:33:55;;;;;;;0.30;0.30;;;22.10;87.00;;;;;;5054872;28;20408;-68
2023/11/05 09:36:20;;;;;;;0.30;0.30;;;21.80;86.90;;;;;;5055468;28;20204;-60
2023/11/05 09:38:46;;;;;;;0.30;0.30;;;21.40;88.30;;;;;;5065693;28;20185;-60
2023/11/05 09:41:16;;;;;;;0.30;0.30;;;21.20;87.50;;;;;;5075307;28;20275;-60
2023/11/05 09:43:48;;;;;;;0.30;0.30;;;21.30;87.00;;;;;;5074777;28;20584;-59
2023/11/05 09:46:13;;;;;;;0.30;0.30;;;20.90;86.80;;;;;;5072462;28;20435;-67
2023/11/05 09:48:39;;;;;;;0.30;0.30;;;20.30;88.70;;;;;;5055259;28;20379;-63
2023/11/05 09:51:04;;;;;;;0.30;0.30;;;19.70;89.80;;;;;;5055021;28;20518;-60
2023/11/05 09:53:30;;;;;;;0.30;0.30;;;19.40;90.60;;;;;;5054631;28;20198;-62
2023/11/05 09:55:56;;;;;;;0.30;0.20;;;19.20;91.10;;;;;;5054970;28;20201;-60
2023/11/05 09:58:22;;;;;;;0.30;0.20;;;19.10;91.90;;;;;;5074695;28;20264;-62
2023/11/05 10:00:50;;;;;;;0.30;0.30;;;19.30;91.40;;;;;;5075151;28;20177;-64
2023/11/05 10:03:17;;;;;;;0.30;0.30;;;19.20;91.20;;;;;;5074375;28;20496;-69
2023/11/05 10:05:44;;;;;;;0.40;0.40;;;19.20;91.30;;;;;;5074903;28;20406;-65
2023/11/05 10:08:10;;;;;;;0.30;0.20;;;18.80;91.20;;;;;;5056588;28;20930;-64
2023/11/05 10:10:38;;;;;;;0.30;0.30;;;18.20;92.30;;;;;;5054820;28;20915;-68
2023/11/05 10:13:04;;;;;;;0.30;0.30;;;17.60;93.00;;;;;;5054356;28;20503;-63
2023/11/05 10:15:36;;;;;;;0.30;0.30;;;17.20;93.90;;;;;;5053468;28;20412;-63
2023/11/05 10:18:03;;;;;;;0.30;0.20;;;16.90;94.50;;;;;;5070531;28;20414;-63
2023/11/05 10:20:30;;;;;;;0.30;0.30;;;16.50;95.20;;;;;;5073918;28;20395;-60
2023/11/05 10:23:10;;;;;;;0.30;0.20;;;16.10;96.10;;;;;;5055264;28;20482;-65
2023/11/05 10:25:35;;;;;;;0.30;0.30;;;15.90;97.40;;;;;;5073710;28;20417;-63
2023/11/05 10:28:01;;;;;;;0.30;0.30;;;15.80;97.00;;;;;;5056596;28;21008;-62
2023/11/05 10:30:30;;;;;;;0.30;0.30;;;15.60;97.70;;;;;;5054171;28;20177;-63
2023/11/05 10:32:56;;;;;;;0.30;0.30;;;15.50;98.00;;;;;;5051881;28;20425;-60
2023/11/05 10:35:27;;;;;;;0.30;0.30;;;15.30;98.50;;;;;;5059429;28;20782;-66
2023/11/05 10:37:53;;;;;;;0.30;0.30;;;15.10;99.00;;;;;;5071900;28;20171;-62
2023/11/05 10:40:20;;;;;;;0.47;0.47;;;15.00;99.70;;;;;;5071888;28;20423;-65
2023/11/05 10:42:48;;;;;;;0.30;0.30;;;14.80;99.90;;;;;;5071361;28;20451;-62
2023/11/05 10:45:16;;;;;;;0.30;0.30;;;14.50;99.90;;;;;;5065345;28;20505;-62
2023/11/05 10:47:42;;;;;;;0.30;0.27;;;14.30;99.90;;;;;;5053071;28;20413;-63
2023/11/05 10:50:17;;;;;;;0.33;0.33;;;14.10;99.90;;;;;;5053840;28;20892;-62
2023/11/05 10:52:44;;;;;;;0.30;0.20;;;13.90;99.90;;;;;;5053445;28;20514;-61
2023/11/05 10:55:11;;;;;;;0.40;0.40;;;13.60;99.90;;;;;;5039427;28;20985;-63
2023/11/05 10:57:43;;;;;;;0.30;0.30;;;13.40;99.90;;;;;;5073681;28;20456;-62
2023/11/05 11:00:27;;;;;;;0.30;0.30;;;13.40;99.90;;;;;;5073603;28;20415;-62
2023/11/05 11:02:59;;;;;;;0.30;0.30;;;13.20;99.90;;;;;;5072959;28;20462;-65
2023/11/05 11:05:43;;;;;;;0.37;0.37;;;13.20;99.90;;;;;;5049584;28;20462;-61
2023/11/05 11:08:13;;;;;;;0.30;0.30;;;13.10;99.90;;;;;;5053794;28;20444;-62
2023/11/05 11:10:41;;;;;;;0.30;0.20;;;13.10;99.90;;;;;;5053465;28;20434;-63
2023/11/05 11:13:10;;;;;;;0.30;0.30;;;12.90;99.90;;;;;;5053206;28;20408;-62
2023/11/05 11:15:37;;;;;;;0.30;0.30;;;12.80;99.90;;;;;;5042152;28;20415;-63
2023/11/05 11:18:03;;;;;;;0.30;0.30;;;12.70;99.90;;;;;;5073602;28;20808;-63
2023/11/05 11:20:31;;;;;;;0.30;0.30;;;12.60;99.90;;;;;;5073474;28;20492;-62
2023/11/05 11:23:02;;;;;;;0.30;0.30;;;12.50;99.90;;;;;;5073031;28;20458;-63
2023/11/05 11:25:33;;;;;;;0.40;0.40;;;12.40;99.90;;;;;;5067254;28;20423;-63
2023/11/05 11:28:24;;;;;;;0.30;0.30;;;12.40;99.90;;;;;;5053138;28;20980;-64
2023/11/05 11:30:51;;;;;;;0.30;0.30;;;12.30;99.90;;;;;;5035221;28;20407;-65
2023/11/05 11:33:21;;;;;;;0.30;0.30;;;12.30;99.90;;;;;;5052521;28;20435;-64
2023/11/05 11:35:47;;;;;;;0.30;0.30;;;12.20;99.90;;;;;;5059143;28;20415;-64
2023/11/05 11:38:13;;;;;;;0.30;0.20;;;12.20;99.90;;;;;;5073258;28;20460;-62
2023/11/05 11:40:39;;;;;;;0.30;0.30;;;12.20;99.90;;;;;;5073329;28;20406;-62
2023/11/05 11:43:08;;;;;;;0.30;0.30;;;12.10;99.90;;;;;;5072684;28;20680;-61
2023/11/05 11:45:34;;;;;;;0.30;0.30;;;12.10;99.90;;;;;;5071487;28;20425;-62
2023/11/05 11:48:07;;;;;;;0.30;0.30;;;12.10;99.90;;;;;;5073125;28;20417;-64
2023/11/05 11:50:32;;;;;;;0.33;0.33;;;12.20;99.90;;;;;;5073142;28;20457;-64
2023/11/05 11:52:58;;;;;;;0.30;0.30;;;12.20;99.90;;;;;;5072495;28;20420;-61
2023/11/05 11:55:24;;;;;;;0.30;0.30;;;12.40;99.90;;;;;;5061261;28;20184;-62
2023/11/05 11:57:51;;;;;;;3.13;0.77;;;12.40;99.90;;;;;;5053107;28;20438;-65
2023/11/05 12:00:20;;;;;;;0.30;0.30;;;12.50;99.90;;;;;;5052907;28;20415;-63
2023/11/05 12:02:46;;;;;;;0.33;0.33;;;12.60;99.90;;;;;;5052479;28;20470;-61
2023/11/05 12:05:13;;;;;;;0.30;0.30;;;12.60;99.90;;;;;;5062122;28;20940;-64
2023/11/05 12:07:45;;;;;;;0.30;0.30;;;12.70;99.90;;;;;;5072418;28;20414;-63
2023/11/05 12:10:20;;;;;;;0.30;0.30;;;12.90;99.90;;;;;;5054886;28;20414;-64
2023/11/05 12:12:48;;;;;;;0.30;0.30;;;13.00;99.90;;;;;;5072676;28;20456;-62
2023/11/05 12:15:15;;;;;;;0.30;0.30;;;13.00;99.90;;;;;;5071134;28;20478;-64
2023/11/05 12:17:45;;;;;;;0.30;0.30;;;13.10;99.90;;;;;;5072938;28;20417;-63
2023/11/05 12:20:14;;;;;;;0.30;0.20;;;13.10;99.90;;;;;;5073048;28;20414;-64
2023/11/05 12:22:41;;;;;;;0.33;0.33;;;13.10;99.90;;;;;;5072360;28;20532;-65
2023/11/05 12:25:10;;;;;;;0.30;0.30;;;13.10;99.90;;;;;;5063645;28;20492;-63
2023/11/05 12:27:44;;;;;;;0.30;0.20;;;13.20;99.90;;;;;;5052629;28;20407;-63
2023/11/05 12:30:10;;;;;;;0.30;0.30;;;13.30;99.90;;;;;;5052881;28;20407;-63
2023/11/05 12:32:43;;;;;;;0.30;0.20;;;13.30;99.90;;;;;;5052225;28;20415;-64
2023/11/05 12:35:10;;;;;;;0.30;0.30;;;13.40;99.90;;;;;;5063044;28;20453;-63
2023/11/05 12:37:36;;;;;;;0.37;0.37;;;13.40;99.90;;;;;;5072594;28;20518;-63
2023/11/05 12:40:04;;;;;;;0.30;0.30;;;13.40;99.90;;;;;;5076337;28;20516;-64
2023/11/05 12:42:33;;;;;;;0.30;0.30;;;13.40;99.90;;;;;;5074207;28;20454;-62
2023/11/05 12:44:59;;;;;;;0.30;0.30;;;13.40;99.90;;;;;;5056172;28;20438;-64
2023/11/05 12:47:25;;;;;;;0.40;0.40;;;13.40;99.90;;;;;;5056391;28;20759;-61
2023/11/05 12:49:52;;;;;;;0.30;0.30;;;13.40;99.90;;;;;;5056437;28;20861;-64
2023/11/05 12:52:17;;;;;;;0.30;0.23;;;13.40;99.90;;;;;;5056001;28;20429;-66
2023/11/05 12:54:43;;;;;;;0.30;0.30;;;13.40;99.90;;;;;;5075395;28;20216;-62
2023/11/05 12:57:09;;;;;;;0.30;0.30;;;13.40;99.90;;;;;;5076204;28;20315;-64
2023/11/05 12:59:39;;;;;;;0.30;0.30;;;13.40;99.90;;;;;;5076004;28;20191;-63
2023/11/05 13:02:05;;;;;;;0.30;0.30;;;13.40;99.90;;;;;;5075775;28;20469;-65
2023/11/05 13:04:31;;;;;;;0.30;0.30;;;13.30;99.90;;;;;;5074959;28;20461;-61
2023/11/05 13:06:57;;;;;;;0.30;0.30;;;13.30;99.90;;;;;;5075938;28;20410;-65
2023/11/05 13:09:22;;;;;;;0.30;0.30;;;13.30;99.90;;;;;;5075991;28;20176;-61
2023/11/05 13:11:48;;;;;;;0.30;0.30;;;13.30;99.90;;;;;;5075953;28;20276;-64
2023/11/05 13:14:14;;;;;;;0.40;0.40;;;13.30;99.90;;;;;;5060078;28;20200;-63
2023/11/05 13:16:40;;;;;;;0.30;0.30;;;13.30;99.90;;;;;;5055587;28;20219;-62
2023/11/05 13:19:05;;;;;;;0.30;0.30;;;13.30;99.90;;;;;;5055786;28;20450;-65
2023/11/05 13:21:31;;;;;;;0.30;0.20;;;13.30;99.90;;;;;;5055666;28;20200;-64
2023/11/05 13:23:57;;;;;;;0.33;0.33;;;13.30;99.90;;;;;;5055584;28;20193;-64
2023/11/05 13:26:22;;;;;;;0.33;0.33;;;13.30;99.90;;;;;;5055486;28;20640;-62
2023/11/05 13:28:48;;;;;;;0.30;0.20;;;13.30;99.90;;;;;;5055581;28;20177;-63
2023/11/05 13:31:13;;;;;;;0.30;0.27;;;13.20;99.90;;;;;;5069564;28;20180;-63
2023/11/05 13:33:39;;;;;;;0.30;0.30;;;13.20;99.90;;;;;;5075137;28;20189;-65
2023/11/05 13:36:07;;;;;;;0.30;0.30;;;13.20;99.90;;;;;;5075667;28;20218;-65
2023/11/05 13:38:35;;;;;;;0.30;0.30;;;13.20;99.90;;;;;;5075460;28;20178;-64
2023/11/05 13:41:01;;;;;;;0.30;0.20;;;13.20;99.90;;;;;;5062434;28;20427;-64
2023/11/05 13:43:26;;;;;;;0.33;0.33;;;13.20;99.90;;;;;;5054712;28;20836;-64
2023/11/05 13:45:53;;;;;;;0.30;0.30;;;13.10;99.90;;;;;;5055462;28;20535;-64
2023/11/05 13:48:19;;;;;;;0.30;0.30;;;13.20;99.90;;;;;;5037170;28;20176;-64
2023/11/05 13:50:45;;;;;;;0.30;0.20;;;13.10;99.90;;;;;;5064794;28;20428;-65
2023/11/05 13:53:10;;;;;;;0.30;0.30;;;13.10;99.90;;;;;;5074690;28;20183;-61
2023/11/05 13:55:36;;;;;;;0.50;0.50;;;13.00;99.90;;;;;;5075279;28;20179;-63
2023/11/05 13:58:02;;;;;;;0.30;0.30;;;12.90;99.90;;;;;;5075022;28;20188;-62
2023/11/05 14:00:28;;;;;;;0.40;0.40;;;12.90;99.90;;;;;;5067537;28;20424;-64
2023/11/05 14:02:53;;;;;;;0.30;0.30;;;12.90;99.90;;;;;;5037446;28;20693;-62
2023/11/05 14:05:19;;;;;;;0.30;0.30;;;12.90;99.90;;;;;;5065128;28;20180;-63
2023/11/05 14:07:44;;;;;;;0.30;0.30;;;12.90;99.90;;;;;;5075001;28;20175;-64
2023/11/05 14:10:11;;;;;;;0.30;0.20;;;12.80;99.90;;;;;;5069704;28;20184;-64
2023/11/05 14:12:37;;;;;;;0.30;0.30;;;12.70;99.90;;;;;;5054294;28;20184;-62
2023/11/05 14:15:08;;;;;;;0.30;0.30;;;12.70;99.90;;;;;;5054743;28;20443;-63
2023/11/05 14:17:34;;;;;;;0.40;0.40;;;12.70;99.90;;;;;;5054722;28;20430;-63
2023/11/05 14:20:00;;;;;;;0.30;0.30;;;12.60;99.90;;;;;;5057556;28;20470;-62
2023/11/05 14:22:26;;;;;;;0.40;0.40;;;12.60;99.90;;;;;;5074267;28;20453;-63
2023/11/05 14:24:51;;;;;;;0.30;0.30;;;12.50;99.90;;;;;;5074125;28;20785;-63
2023/11/05 14:27:20;;;;;;;0.30;0.30;;;12.50;99.90;;;;;;5075059;28;20168;-62
2023/11/05 14:29:45;;;;;;;0.30;0.30;;;12.50;99.90;;;;;;5072856;28;20267;-62
2023/11/05 14:32:11;;;;;;;0.33;0.33;;;12.40;99.90;;;;;;5054520;28;20510;-63
2023/11/05 14:34:37;;;;;;;0.30;0.30;;;12.40;99.90;;;;;;5053975;28;20245;-65
2023/11/05 14:37:03;;;;;;;0.30;0.30;;;12.40;99.90;;;;;;5054438;28;20415;-64
2023/11/05 14:39:30;;;;;;;0.33;0.33;;;12.30;99.90;;;;;;5054323;28;20924;-63
2023/11/05 14:41:57;;;;;;;0.30;0.30;;;12.30;99.90;;;;;;5072122;28;20864;-65
2023/11/05 14:44:23;;;;;;;0.30;0.30;;;12.30;99.90;;;;;;5073728;28;20487;-64
2023/11/05 14:46:48;;;;;;;0.30;0.30;;;12.30;99.90;;;;;;5073897;28;20796;-65
2023/11/05 14:49:14;;;;;;;0.37;0.37;;;12.30;99.90;;;;;;5074151;28;20222;-64
2023/11/05 14:51:39;;;;;;;0.30;0.30;;;12.20;99.90;;;;;;5058047;28;20179;-65
2023/11/05 14:54:05;;;;;;;0.30;0.30;;;12.20;99.90;;;;;;5053384;28;20207;-64
2023/11/05 14:56:30;;;;;;;0.30;0.30;;;12.20;99.90;;;;;;5054308;28;20265;-63
2023/11/05 14:58:57;;;;;;;0.30;0.30;;;12.20;99.90;;;;;;5053810;28;20172;-62
2023/11/05 15:01:23;;;;;;;0.30;0.30;;;12.20;99.90;;;;;;5066093;28;20252;-62
2023/11/05 15:03:50;;;;;;;0.30;0.30;;;12.10;99.90;;;;;;5073297;28;20430;-64
2023/11/05 15:06:16;;;;;;;0.30;0.30;;;12.20;99.90;;;;;;5073710;28;20476;-62
2023/11/05 15:08:41;;;;;;;0.30;0.30;;;12.20;99.90;;;;;;5073719;28;20429;-63
2023/11/05 15:11:07;;;;;;;0.30;0.30;;;12.20;99.90;;;;;;5062840;28;20426;-63
2023/11/05 15:13:33;;;;;;;0.37;0.37;;;12.20;99.90;;;;;;5053186;28;20188;-63
2023/11/05 15:15:59;;;;;;;0.30;0.30;;;12.20;99.90;;;;;;5053789;28;20433;-64
2023/11/05 15:18:28;;;;;;;0.30;0.30;;;12.20;99.90;;;;;;5053593;28;20494;-65
2023/11/05 15:20:54;;;;;;;0.30;0.30;;;12.20;99.90;;;;;;5061960;28;20620;-63
2023/11/05 15:23:20;;;;;;;0.30;0.30;;;12.20;99.90;;;;;;5072893;28;20550;-63
2023/11/05 15:25:45;;;;;;;0.30;0.30;;;12.20;99.90;;;;;;5073345;28;20246;-63
2023/11/05 15:28:13;;;;;;;0.30;0.30;;;12.20;99.90;;;;;;5073565;28;20176;-61
2023/11/05 15:30:42;;;;;;;0.30;0.30;;;12.10;99.90;;;;;;5066723;28;20187;-64
2023/11/05 15:33:10;;;;;;;0.40;0.40;;;12.10;99.90;;;;;;5052917;28;20508;-64
2023/11/05 15:35:38;;;;;;;0.30;0.30;;;12.10;99.90;;;;;;5053302;28;20417;-62
2023/11/05 15:38:06;;;;;;;0.30;0.30;;;12.00;99.90;;;;;;5053260;28;20445;-63
2023/11/05 15:40:31;;;;;;;0.30;0.30;;;12.00;99.90;;;;;;5056482;28;20417;-62
2023/11/05 15:42:59;;;;;;;0.30;0.30;;;11.90;99.90;;;;;;5072792;28;20453;-60
2023/11/05 15:45:25;;;;;;;0.37;0.37;;;11.90;99.90;;;;;;5073098;28;20175;-64
2023/11/05 15:47:50;;;;;;;0.30;0.30;;;11.90;99.90;;;;;;5073302;28;20425;-64
2023/11/05 15:50:19;;;;;;;0.30;0.20;;;11.80;99.90;;;;;;5041066;28;20656;-64
2023/11/05 15:52:45;;;;;;;0.30;0.30;;;11.70;99.90;;;;;;5053034;28;20184;-62
2023/11/05 15:55:11;;;;;;;0.30;0.30;;;11.70;99.90;;;;;;5052902;28;20959;-64
2023/11/05 15:57:38;;;;;;;0.30;0.30;;;11.50;99.90;;;;;;5053107;28;20498;-62
2023/11/05 16:00:09;;;;;;;0.30;0.30;;;11.50;99.90;;;;;;5053601;28;20771;-65
2023/11/05 16:02:35;;;;;;;0.30;0.30;;;11.30;99.90;;;;;;5056714;28;20868;-62
2023/11/05 16:05:01;;;;;;;0.30;0.30;;;11.20;99.90;;;;;;5072801;28;20455;-63
2023/11/05 16:07:28;;;;;;;0.40;0.40;;;11.10;99.90;;;;;;5072988;28;20444;-64
2023/11/05 16:09:54;;;;;;;0.30;0.30;;;11.00;99.90;;;;;;5066680;28;20179;-63
2023/11/05 16:12:20;;;;;;;0.30;0.30;;;11.00;99.90;;;;;;5052686;28;20228;-61
2023/11/05 16:14:45;;;;;;;0.30;0.30;;;11.00;99.90;;;;;;5056259;28;20195;-61
2023/11/05 16:17:11;;;;;;;0.30;0.30;;;10.90;99.90;;;;;;5057057;28;20206;-64
2023/11/05 16:19:36;;;;;;;0.30;0.30;;;10.90;99.90;;;;;;5057963;28;20174;-63
2023/11/05 16:22:03;;;;;;;0.40;0.40;;;10.90;99.90;;;;;;5056647;28;20666;-64
2023/11/05 16:24:28;;;;;;;0.30;0.30;;;10.90;99.90;;;;;;5056409;28;20193;-66
2023/11/05 16:26:54;;;;;;;0.40;0.40;;;10.90;99.90;;;;;;5039205;28;20466;-66
2023/11/05 16:29:19;;;;;;;0.40;0.40;;;10.90;99.90;;;;;;5057518;28;20177;-63
2023/11/05 16:31:45;;;;;;;0.37;0.37;;;10.90;99.90;;;;;;5068946;28;20186;-64
2023/11/05 16:34:12;;;;;;;0.30;0.30;;;10.90;99.90;;;;;;5056140;28;20196;-62
2023/11/05 16:36:39;;;;;;;0.30;0.30;;;10.90;99.90;;;;;;5056440;28;20178;-62
2023/11/05 16:39:04;;;;;;;0.32;0.32;;;10.90;99.90;;;;;;5056606;28;20182;-60
2023/11/05 16:41:30;;;;;;;0.40;0.40;;;10.90;99.90;;;;;;5056229;28;20688;-63
2023/11/05 16:43:57;;;;;;;0.30;0.30;;;10.90;99.90;;;;;;5055932;28;20195;-64
2023/11/05 16:46:23;;;;;;;0.30;0.30;;;10.90;99.90;;;;;;5056380;28;20463;-62
2023/11/05 16:48:48;;;;;;;0.30;0.30;;;10.90;99.90;;;;;;5056246;28;20637;-60
2023/11/05 16:51:14;;;;;;;0.30;0.30;;;10.90;99.90;;;;;;5074016;28;20503;-64
2023/11/05 16:53:40;;;;;;;0.40;0.40;;;10.90;99.90;;;;;;5075765;28;20192;-65
2023/11/05 16:56:07;;;;;;;0.40;0.40;;;10.80;99.90;;;;;;5076069;28;20190;-62
2023/11/05 16:58:33;;;;;;;0.30;0.30;;;10.90;99.90;;;;;;5075967;28;20158;-62
2023/11/05 17:00:59;;;;;;;0.30;0.30;;;10.80;99.90;;;;;;5060038;28;20202;-61
2023/11/05 17:03:25;;;;;;;0.30;0.30;;;10.90;99.90;;;;;;5055293;28;20237;-64
2023/11/05 17:05:51;;;;;;;0.30;0.30;;;10.90;99.90;;;;;;5056959;28;20534;-63
2023/11/05 17:08:16;;;;;;;0.33;0.33;;;10.90;99.90;;;;;;5056075;28;20410;-62